Portada
METAR-TAF:

METAR-TAF

Aeroports :

Mandalay, Myanmar

latitud: 21-59N, longitud: 096-06E, altitud: 74 m

Observació

L'informe es va fer fa 45 minuts, a les 01:30 UTC
Vent 2 kt del Nord
Temperatura 22°C
Humitat 83%
Pressió 1012 hPa
Visibilitat: 7000 m
Núvols disperses a una alçada de 2500 ft

METAR: VYMD 030130Z 36002KT 7000 SCT025 22/19 Q1012 NOSIG

Hora: 08:45 (02:15 UTC)

Pronòstic

L'informe es va fer fa 9 hores i 15 minuts, a les 17:00 UTC
Pronòstic vàlid del 02 a les 18 UTC al 03 a les 18 UTC
Vent 3 kt del Nord
Visibilitat: 7000 m
Escasses núvols a una alçada de 2500 ft
Temporalment
l' 02 a les 18 UTC al 02 a les 24 UTC
Vent 4 kt del Nord
Visibilitat: 6000 m
Núvols disperses a una alçada de 2500 ft

TAF: VYMD 021700Z 0218/0318 36003KT 7000 FEW025 TEMPO 0218/0224 36004KT 6000 SCT025

Observacions i pronòstics meteorològics de més de 4000 aeroports (METAR i TAF).

Les estacions disponibles són els punts grocs i vermells al mapa.

Posi el ratolí al punt desitjat per veure el nom de l'estació.

Feu clic per veure les observacions i els pronòstics meteorològics.

Per canviar el mapa: feu clic els botons verds amb una creu de color negre per apropar; al botó verd amb un guió per allunyar la imatge; o en les fletxes verdes per a mapes adjacents.


METAR-TAF: